»·PEaware :: N614FT KSNA-KBUR

N614FT :: KSNA-KBUR

FLIGHT INFORMATION

Flight Status: Arrived
Operator: Privately registered:
United States
More flights under this callsign
Pilot: Carlos A. (16805)
Aircraft: PIPER PA-31/31P NAVAJO CHIEFTAIN
(PA31)
More flights by this aircraft type
Origin: KSNA John Wayne-Orange Co
United States
Destination: KBUR Bob Hope-Burbank
United States
More flights between these airports :: More routes between these airports
Route: SLI V23 POPPR SMO125 SMO SMO311 SILEX
File this flight plan on PilotEdge
Remarks: CSTP1
Altitude:
(Current/Filed)
4,000ft
Speed:
(Current/Filed)
165kts
Departed: 18-Jan-23 08:06 PM
Arrived: 18-Jan-23 08:34 PM
Distance/Time
Traveled:
40nm/0:28
Distance/Time
To Go:
Arrived

Flight Plot

Page will automatically refresh every two minutes.


Map Options




Map Legend


Flown Route
Filed Route
Departure Airport
Arrival Airport
Navaid (VOR, NDB)
Fix

Horizontal Profiles

Position Reports

Time Latitude Longitude Heading Altitude Ground
Speed
18-Jan-23 19:22 33.675603 -117.871261 22 60ft 0kts
18-Jan-23 19:23 33.675603 -117.871261 22 60ft 0kts
18-Jan-23 19:24 33.675603 -117.871261 22 60ft 0kts
18-Jan-23 19:25 33.675603 -117.871261 22 60ft 0kts
18-Jan-23 19:26 33.675603 -117.871261 22 60ft 0kts
18-Jan-23 19:27 33.675603 -117.871261 22 60ft 0kts
18-Jan-23 19:28 33.675603 -117.871261 22 60ft 0kts
18-Jan-23 19:29 33.675603 -117.871261 22 60ft 0kts
18-Jan-23 19:30 33.675603 -117.871261 22 60ft 0kts
18-Jan-23 19:31 33.675603 -117.871261 22 60ft 0kts
18-Jan-23 19:32 33.675605 -117.871260 22 60ft 0kts
18-Jan-23 19:33 33.675606 -117.871259 22 60ft 0kts
18-Jan-23 19:34 33.675608 -117.871259 22 60ft 0kts
18-Jan-23 19:35 33.675609 -117.871258 22 60ft 0kts
18-Jan-23 19:36 33.675610 -117.871257 22 60ft 0kts
18-Jan-23 19:37 33.675612 -117.871257 22 60ft 0kts
18-Jan-23 19:38 33.675613 -117.871256 22 60ft 0kts
18-Jan-23 19:39 33.675615 -117.871255 22 60ft 0kts
18-Jan-23 19:40 33.675616 -117.871255 22 60ft 0kts
18-Jan-23 19:41 33.675618 -117.871254 22 60ft 0kts
18-Jan-23 19:42 33.675619 -117.871253 22 60ft 0kts
18-Jan-23 19:43 33.675621 -117.871252 22 60ft 0kts
18-Jan-23 19:44 33.675622 -117.871252 22 60ft 0kts
18-Jan-23 19:45 33.675624 -117.871251 22 60ft 0kts
18-Jan-23 19:46 33.675625 -117.871250 22 60ft 0kts
18-Jan-23 19:47 33.675665 -117.871231 22 60ft 0kts
18-Jan-23 19:48 33.675711 -117.871057 113 60ft 0kts
18-Jan-23 19:49 33.675708 -117.871049 113 60ft 0kts
18-Jan-23 19:50 33.675704 -117.871037 113 60ft 0kts
18-Jan-23 19:51 33.675700 -117.871028 113 60ft 0kts
18-Jan-23 19:52 33.675700 -117.871027 113 60ft 0kts
18-Jan-23 19:53 33.675699 -117.871025 113 60ft 0kts
18-Jan-23 19:54 33.675699 -117.871024 113 60ft 0kts
18-Jan-23 19:55 33.675698 -117.871022 113 60ft 0kts
18-Jan-23 19:56 33.675698 -117.871021 113 60ft 0kts
18-Jan-23 19:57 33.675697 -117.871019 113 60ft 0kts
18-Jan-23 19:58 33.675664 -117.870557 29 60ft 4kts
18-Jan-23 19:59 33.678427 -117.868904 29 60ft 12kts
18-Jan-23 20:00 33.680977 -117.866779 114 60ft 7kts
18-Jan-23 20:01 33.680795 -117.866350 119 60ft 0kts
18-Jan-23 20:02 33.680794 -117.866349 119 60ft 0kts
18-Jan-23 20:03 33.680793 -117.866347 119 60ft 0kts
18-Jan-23 20:04 33.680517 -117.865794 207 60ft 1kts
18-Jan-23 20:05 33.667658 -117.874607 216 708ft 97kts
18-Jan-23 20:06 33.646633 -117.896562 215 2043ft 111kts
18-Jan-23 20:07 33.634573 -117.928885 296 3209ft 128kts
18-Jan-23 20:08 33.663238 -117.957526 307 3834ft 171kts
18-Jan-23 20:09 33.680972 -118.010602 288 4175ft 173kts
18-Jan-23 20:10 33.699490 -118.065211 296 3913ft 174kts
18-Jan-23 20:11 33.717469 -118.117045 287 4035ft 165kts
18-Jan-23 20:12 33.733524 -118.170423 289 4167ft 179kts
18-Jan-23 20:13 33.761441 -118.218937 320 4103ft 183kts
18-Jan-23 20:14 33.802087 -118.254223 325 3980ft 175kts
18-Jan-23 20:15 33.839276 -118.289155 321 3962ft 169kts
18-Jan-23 20:16 33.876051 -118.325768 317 3943ft 169kts
18-Jan-23 20:17 33.912549 -118.361856 321 4180ft 166kts
18-Jan-23 20:18 33.953106 -118.394142 322 4256ft 177kts
18-Jan-23 20:19 33.990073 -118.436173 311 4145ft 177kts
18-Jan-23 20:20 34.021122 -118.482291 304 4044ft 178kts
18-Jan-23 20:21 34.051963 -118.528303 312 3937ft 175kts
18-Jan-23 20:22 34.083533 -118.572044 308 3935ft 174kts
18-Jan-23 20:23 34.116353 -118.615440 311 4035ft 175kts
18-Jan-23 20:24 34.147584 -118.660654 310 3976ft 178kts
18-Jan-23 20:25 34.183671 -118.698580 356 3955ft 175kts
18-Jan-23 20:26 34.204590 -118.655501 91 3577ft 189kts
18-Jan-23 20:27 34.201984 -118.600641 90 3360ft 159kts
18-Jan-23 20:28 34.200114 -118.545427 90 3213ft 160kts
18-Jan-23 20:29 34.199722 -118.492877 89 2832ft 145kts
18-Jan-23 20:30 34.199479 -118.450081 96 2158ft 116kts
18-Jan-23 20:31 34.198245 -118.412223 89 1476ft 103kts
18-Jan-23 20:32 34.198199 -118.380696 89 945ft 88kts
18-Jan-23 20:33 34.197760 -118.359228 82 782ft 17kts
18-Jan-23 20:34 34.197238 -118.357964 180 782ft 0kts
18-Jan-23 20:35 34.197236 -118.357964 180 782ft 0kts
18-Jan-23 20:36 34.196596 -118.359599 263 782ft 12kts
18-Jan-23 20:37 34.198959 -118.360600 269 782ft 8kts
18-Jan-23 20:38 34.199162 -118.364533 359 782ft 8kts
18-Jan-23 20:39 34.200097 -118.364522 358 782ft 0kts
18-Jan-23 20:40 34.200099 -118.364522 358 782ft 0kts
18-Jan-23 20:41 34.200100 -118.364522 358 782ft 0kts
18-Jan-23 20:42 34.200102 -118.364522 358 782ft 0kts
18-Jan-23 20:43 34.200103 -118.364522 358 782ft 0kts
18-Jan-23 20:44 34.200105 -118.364522 358 782ft 0kts
18-Jan-23 20:45 34.200107 -118.364522 358 782ft 0kts

Navigation Log

Ident Type
Flight plan parsing failed, navigation log unavailable